Kaolack, Senegal
Current Conditions -  °F | °C
As of 10:00 AM on Wednesday 26 Nov 2014 (Local Time) from GOOK Reporting Station
Clear Clear  
Wind Chill: 30°   Ceiling: Unl
Heat Index: 31°   Visibility: 6mi
Dew Point: 18°   Wind: 14mph
Humidity: 48%   Direction: 40°NE
Pressure: 29.94"   Gusts: NA
Location:  14.15°N, 16.1°W
Report Text: GOOK 261000Z 04012KT CAVOK 30/18 Q1014
Loading
Personal Weather Stations






























Interactive Weather Map New forecast layout! Learn more

10-Day Weather Forecast

Advertisements
Track Severe Weather on mobile